createdAt,value
2023-01-18T00:04:41.588Z,2.57
2023-01-18T00:09:43.077Z,2.65
2023-01-18T00:14:44.529Z,2.60
2023-01-18T00:19:45.949Z,2.59
2023-01-18T00:24:47.417Z,2.50
2023-01-18T00:29:48.880Z,2.50
2023-01-18T00:34:50.665Z,2.50
2023-01-18T00:39:52.102Z,2.58
2023-01-18T00:44:53.606Z,2.64
2023-01-18T00:49:55.082Z,2.66
2023-01-18T00:54:56.569Z,2.75
2023-01-18T00:59:57.973Z,2.75
2023-01-18T01:05:18.441Z,2.79
2023-01-18T01:10:19.931Z,2.70
2023-01-18T01:15:39.578Z,2.76
2023-01-18T01:20:59.567Z,2.82
2023-01-18T01:26:13.736Z,2.68
2023-01-18T01:31:16.205Z,2.79
2023-01-18T01:36:20.575Z,2.75
2023-01-18T01:41:26.708Z,2.74
2023-01-18T01:46:48.090Z,2.77
2023-01-18T01:51:58.596Z,2.72
2023-01-18T01:57:06.109Z,2.69
2023-01-18T02:02:07.944Z,2.79
2023-01-18T02:07:10.795Z,2.72
2023-01-18T02:12:12.904Z,2.76
2023-01-18T02:17:40.511Z,2.77
2023-01-18T02:22:47.774Z,2.87
2023-01-18T02:28:03.924Z,2.85
2023-01-18T02:33:10.828Z,2.88
2023-01-18T02:38:28.021Z,2.84
2023-01-18T02:43:48.399Z,2.86
2023-01-18T02:48:50.717Z,2.89
2023-01-18T02:53:52.616Z,2.92
2023-01-18T02:59:14.099Z,2.93
2023-01-18T03:04:26.701Z,2.86
2023-01-18T03:09:28.576Z,2.93
2023-01-18T03:14:47.956Z,3.02
2023-01-18T03:20:09.207Z,3.15
2023-01-18T03:25:15.090Z,3.19
2023-01-18T03:30:35.187Z,3.17
2023-01-18T03:35:38.243Z,3.19
2023-01-18T03:40:39.770Z,3.19
2023-01-18T03:45:46.539Z,3.18
2023-01-18T03:51:00.844Z,3.16
2023-01-18T03:56:09.004Z,3.19
2023-01-18T04:01:10.730Z,3.25
2023-01-18T04:06:12.252Z,3.14
2023-01-18T04:11:13.697Z,3.24
2023-01-18T04:16:15.290Z,2.90
2023-01-18T04:21:16.761Z,2.86
2023-01-18T04:26:19.277Z,2.86
2023-01-18T04:31:20.889Z,2.87
2023-01-18T04:36:22.432Z,3.00
2023-01-18T04:41:24.131Z,3.07
2023-01-18T04:46:25.617Z,3.15
2023-01-18T04:51:27.385Z,3.21
2023-01-18T04:56:28.836Z,3.27
2023-01-18T05:01:32.531Z,3.34
2023-01-18T05:06:33.967Z,3.39
2023-01-18T05:11:35.391Z,3.41
2023-01-18T05:16:36.879Z,3.45
2023-01-18T05:21:38.335Z,3.45
2023-01-18T05:26:39.765Z,3.51
2023-01-18T05:31:41.703Z,3.52
2023-01-18T05:36:43.151Z,3.58
2023-01-18T05:41:44.643Z,3.55
2023-01-18T05:46:46.103Z,3.51
2023-01-18T05:51:47.629Z,3.38
2023-01-18T05:56:49.068Z,3.30
2023-01-18T06:01:50.535Z,3.28
2023-01-18T06:06:51.980Z,3.28
2023-01-18T06:11:53.996Z,3.26
2023-01-18T06:16:55.665Z,3.24
2023-01-18T06:21:57.088Z,3.16
2023-01-18T06:26:59.227Z,3.15
2023-01-18T06:32:00.738Z,3.17
2023-01-18T06:37:03.381Z,3.08
2023-01-18T06:42:05.313Z,3.13
2023-01-18T06:47:06.735Z,3.16
2023-01-18T06:52:08.162Z,3.05
2023-01-18T06:57:09.569Z,3.07
2023-01-18T07:02:14.168Z,3.03
2023-01-18T07:07:15.724Z,3.02
2023-01-18T07:12:17.153Z,3.11
2023-01-18T07:17:18.650Z,3.17
2023-01-18T07:22:20.152Z,3.25
2023-01-18T07:27:21.569Z,3.40
2023-01-18T07:32:23.039Z,3.45
2023-01-18T07:37:24.449Z,3.44
2023-01-18T07:42:25.859Z,3.45
2023-01-18T07:47:27.292Z,3.47
2023-01-18T07:52:28.857Z,3.59
2023-01-18T07:57:30.275Z,3.56
2023-01-18T08:02:31.709Z,3.50
2023-01-18T08:07:33.441Z,3.52
2023-01-18T08:12:34.933Z,3.49
2023-01-18T08:17:36.362Z,3.55
2023-01-18T08:22:37.868Z,3.41
2023-01-18T08:27:39.273Z,3.46
2023-01-18T08:32:43.749Z,3.51
2023-01-18T08:37:45.199Z,3.49
2023-01-18T08:42:46.848Z,3.55
2023-01-18T08:47:48.255Z,3.66
2023-01-18T08:52:52.467Z,3.69
2023-01-18T08:57:54.802Z,3.61
2023-01-18T09:02:57.590Z,3.55
2023-01-18T09:07:59.363Z,3.62
2023-01-18T09:13:01.273Z,3.63
2023-01-18T09:18:06.194Z,3.67
2023-01-18T09:23:09.349Z,3.81
2023-01-18T09:28:12.362Z,3.82
2023-01-18T09:33:13.840Z,3.76
2023-01-18T09:38:16.044Z,3.73
2023-01-18T09:43:25.838Z,3.83
2023-01-18T09:48:35.762Z,3.84
2023-01-18T09:53:49.061Z,3.80
2023-01-18T09:59:05.637Z,3.85
2023-01-18T10:04:20.619Z,3.89
2023-01-18T10:09:28.955Z,3.74
2023-01-18T10:14:47.930Z,3.86
2023-01-18T10:19:50.245Z,4.12
2023-01-18T10:25:05.138Z,4.18
2023-01-18T10:30:12.637Z,4.24
2023-01-18T10:35:24.676Z,4.31
2023-01-18T10:40:26.600Z,4.28
2023-01-18T10:45:30.462Z,4.42
2023-01-18T10:50:39.826Z,4.44
2023-01-18T10:55:44.735Z,4.58
2023-01-18T11:00:53.560Z,4.31
2023-01-18T11:06:04.812Z,4.08
2023-01-18T11:11:12.199Z,4.05
2023-01-18T11:16:17.629Z,4.05
2023-01-18T11:21:19.279Z,4.18
2023-01-18T11:26:23.381Z,4.20
2023-01-18T11:31:46.253Z,4.26
2023-01-18T11:36:47.874Z,4.38
2023-01-18T11:41:49.824Z,4.41
2023-01-18T11:46:55.676Z,4.46
2023-01-18T11:52:05.194Z,4.46
2023-01-18T11:57:10.247Z,4.50
2023-01-18T12:02:56.517Z,4.44
2023-01-18T12:08:31.840Z,4.43
2023-01-18T12:13:42.267Z,4.10
2023-01-18T12:19:08.607Z,4.19
2023-01-18T12:24:23.767Z,4.04
2023-01-18T12:30:03.660Z,4.14
2023-01-18T12:35:35.629Z,4.23
2023-01-18T12:40:42.967Z,4.32
2023-01-18T12:46:09.077Z,4.31
2023-01-18T12:51:17.330Z,4.33
2023-01-18T12:56:31.378Z,4.33
2023-01-18T13:01:42.732Z,4.50
2023-01-18T13:06:45.610Z,4.44
2023-01-18T13:11:48.698Z,4.47
2023-01-18T13:17:08.897Z,4.51
2023-01-18T13:22:59.435Z,4.19
2023-01-18T13:28:02.747Z,4.35
2023-01-18T13:33:13.776Z,4.48
2023-01-18T13:38:21.139Z,4.58
2023-01-18T13:43:35.615Z,4.51
2023-01-18T13:48:55.213Z,4.49
2023-01-18T13:53:56.721Z,4.48
2023-01-18T13:59:23.286Z,4.50
2023-01-18T14:04:30.140Z,4.54
2023-01-18T14:09:36.410Z,4.52
2023-01-18T14:14:59.384Z,4.54
2023-01-18T14:20:25.505Z,4.59
2023-01-18T14:26:02.521Z,4.61
2023-01-18T14:31:07.098Z,4.69
2023-01-18T14:36:20.879Z,4.69
2023-01-18T14:41:23.206Z,4.65
2023-01-18T14:46:27.070Z,4.63
2023-01-18T14:51:29.976Z,4.70
2023-01-18T14:56:34.838Z,4.68
2023-01-18T15:01:40.093Z,4.63
2023-01-18T15:06:45.775Z,4.58
2023-01-18T15:11:49.266Z,4.63
2023-01-18T15:16:53.514Z,4.63
2023-01-18T15:21:55.070Z,4.63
2023-01-18T15:27:01.249Z,4.62
2023-01-18T15:32:16.508Z,4.63
2023-01-18T15:37:27.167Z,4.59
2023-01-18T15:42:36.912Z,4.54
2023-01-18T15:47:38.525Z,4.53
2023-01-18T15:52:46.500Z,4.59
2023-01-18T15:58:01.310Z,4.66
2023-01-18T16:03:04.539Z,4.64
2023-01-18T16:08:16.918Z,4.72
2023-01-18T16:13:31.000Z,4.69
2023-01-18T16:18:32.599Z,4.72
2023-01-18T16:23:34.276Z,4.52
2023-01-18T16:28:35.732Z,4.26
2023-01-18T16:33:37.164Z,4.19
2023-01-18T16:38:38.604Z,4.11
2023-01-18T16:43:40.630Z,3.89
2023-01-18T16:48:42.118Z,3.97
2023-01-18T16:53:43.565Z,3.83
2023-01-18T16:58:45.040Z,3.86
2023-01-18T17:03:46.456Z,3.95
2023-01-18T17:08:49.323Z,3.84
2023-01-18T17:13:50.941Z,3.82
2023-01-18T17:18:52.533Z,3.88
2023-01-18T17:23:54.024Z,3.82
2023-01-18T17:28:55.455Z,3.85
2023-01-18T17:33:56.912Z,3.77
2023-01-18T17:38:58.435Z,3.85
2023-01-18T17:43:59.880Z,3.86
2023-01-18T17:49:02.701Z,3.91
2023-01-18T17:54:10.247Z,3.92
2023-01-18T17:59:15.444Z,4.00
2023-01-18T18:04:16.910Z,4.14
2023-01-18T18:09:18.380Z,4.21
2023-01-18T18:14:19.893Z,4.26
2023-01-18T18:19:21.354Z,4.31
2023-01-18T18:24:22.889Z,4.34
2023-01-18T18:29:24.323Z,4.35
2023-01-18T18:34:25.928Z,4.32
2023-01-18T18:39:27.345Z,4.38
2023-01-18T18:44:28.984Z,4.39
2023-01-18T18:49:30.415Z,4.17
2023-01-18T18:54:31.911Z,3.95
2023-01-18T18:59:33.395Z,3.85
2023-01-18T19:04:34.878Z,3.84
2023-01-18T19:09:36.373Z,3.79
2023-01-18T19:14:37.801Z,3.81
2023-01-18T19:19:39.257Z,3.86
2023-01-18T19:24:40.801Z,3.89
2023-01-18T19:29:42.231Z,3.90
2023-01-18T19:34:43.783Z,3.71
2023-01-18T19:39:45.907Z,3.67
2023-01-18T19:44:47.303Z,3.54
2023-01-18T19:49:48.846Z,3.54
2023-01-18T19:54:50.249Z,3.54
2023-01-18T19:59:51.793Z,3.69
2023-01-18T20:04:53.334Z,3.88
2023-01-18T20:09:54.863Z,3.92
2023-01-18T20:14:56.280Z,3.98
2023-01-18T20:19:57.685Z,4.14
2023-01-18T20:24:59.140Z,4.07
2023-01-18T20:30:00.621Z,4.16
2023-01-18T20:35:02.062Z,4.21
2023-01-18T20:40:03.732Z,4.21
2023-01-18T20:45:05.800Z,4.18
2023-01-18T20:50:07.584Z,4.19
2023-01-18T20:55:12.784Z,4.21
2023-01-18T21:00:14.698Z,4.23
2023-01-18T21:05:16.207Z,4.39
2023-01-18T21:10:17.625Z,4.35
2023-01-18T21:15:19.041Z,4.09
2023-01-18T21:20:20.465Z,4.17
2023-01-18T21:25:22.124Z,4.23
2023-01-18T21:30:23.702Z,4.36
2023-01-18T21:35:25.219Z,4.41
2023-01-18T21:40:26.633Z,4.49
2023-01-18T21:45:46.840Z,4.41
2023-01-18T21:51:06.940Z,4.41
2023-01-18T21:56:08.928Z,4.41
2023-01-18T22:01:16.912Z,4.06
2023-01-18T22:06:18.417Z,4.17
2023-01-18T22:11:19.927Z,4.24
2023-01-18T22:16:21.389Z,4.26
2023-01-18T22:21:25.362Z,4.23
2023-01-18T22:26:29.248Z,4.27
2023-01-18T22:31:30.702Z,4.30
2023-01-18T22:36:32.880Z,4.28
2023-01-18T22:41:34.382Z,4.18
2023-01-18T22:46:35.851Z,4.23
2023-01-18T22:51:37.467Z,4.16
2023-01-18T22:56:38.904Z,4.15
2023-01-18T23:01:40.350Z,4.19
2023-01-18T23:06:47.880Z,4.19
2023-01-18T23:11:49.526Z,4.21
2023-01-18T23:17:09.800Z,4.17
2023-01-18T23:22:11.326Z,4.00
2023-01-18T23:27:12.797Z,4.06
2023-01-18T23:32:14.205Z,4.03
2023-01-18T23:37:15.605Z,3.97
2023-01-18T23:42:35.700Z,3.92
2023-01-18T23:47:55.776Z,3.95
2023-01-18T23:53:18.842Z,4.02
2023-01-18T23:58:20.675Z,4.03
